Time;durP1;ratioP1;P1;durP2;ratioP2;P2;SDS_P1;SDS_P2;PMS_P1;PMS_P2;Temp;Humidity;BMP_temperature;BMP_pressure;BME280_temperature;BME280_humidity;BME280_pressure;Samples;Min_cycle;Max_cycle;Signal;HPM_P1;HPM_P2
2023/10/21 00:02:03;;;;;;;11.07;3.53;;;19.60;99.90;;;;;;5003766;28;20034;-74
2023/10/21 00:04:29;;;;;;;15.98;3.63;;;19.40;99.90;;;;;;5005678;28;20033;-74
2023/10/21 00:06:55;;;;;;;14.50;3.80;;;19.40;99.90;;;;;;4987041;28;20037;-75
2023/10/21 00:09:21;;;;;;;14.13;3.55;;;19.30;99.90;;;;;;5005800;28;22432;-74
2023/10/21 00:11:47;;;;;;;9.15;3.97;;;19.30;99.90;;;;;;5002455;28;20920;-74
2023/10/21 00:14:12;;;;;;;10.52;3.17;;;19.30;99.90;;;;;;5006018;28;20054;-74
2023/10/21 00:16:38;;;;;;;9.63;4.00;;;19.20;99.90;;;;;;4998879;28;20033;-75
2023/10/21 00:19:04;;;;;;;14.13;3.97;;;19.10;99.90;;;;;;5003358;28;20037;-75
2023/10/21 00:21:30;;;;;;;10.18;3.47;;;19.10;99.90;;;;;;5007751;28;20410;-70
2023/10/21 00:23:56;;;;;;;10.60;4.03;;;19.00;99.90;;;;;;5003720;28;20147;-69
2023/10/21 00:26:22;;;;;;;14.98;3.42;;;18.90;99.90;;;;;;5002390;28;20336;-69
2023/10/21 00:28:48;;;;;;;12.63;3.80;;;18.90;99.90;;;;;;5005772;28;20085;-69
2023/10/21 00:31:14;;;;;;;12.43;3.42;;;18.80;99.90;;;;;;5002777;28;20554;-70
2023/10/21 00:33:39;;;;;;;17.30;3.60;;;18.80;99.90;;;;;;5003145;28;20104;-69
2023/10/21 00:36:06;;;;;;;12.30;3.70;;;18.80;99.90;;;;;;5010592;28;20513;-69
2023/10/21 00:38:31;;;;;;;11.93;3.63;;;18.80;99.90;;;;;;5004160;28;20098;-74
2023/10/21 00:40:57;;;;;;;15.02;3.38;;;18.80;99.90;;;;;;5008054;28;20093;-74
2023/10/21 00:43:39;;;;;;;10.70;3.63;;;18.70;99.90;;;;;;5008556;28;20037;-75
2023/10/21 00:46:16;;;;;;;13.57;3.47;;;18.70;99.90;;;;;;5005854;28;20033;-74
2023/10/21 00:48:43;;;;;;;13.45;3.55;;;18.70;99.90;;;;;;5002591;28;20042;-75
2023/10/21 00:51:09;;;;;;;15.45;3.60;;;18.70;99.90;;;;;;5002122;28;20045;-74
2023/10/21 00:53:36;;;;;;;15.52;3.72;;;18.70;99.90;;;;;;5007527;28;20045;-75
2023/10/21 00:56:02;;;;;;;14.13;4.25;;;18.80;99.90;;;;;;5007375;28;20041;-75
2023/10/21 00:58:31;;;;;;;10.13;3.40;;;19.00;99.90;;;;;;5004786;28;20630;-74
2023/10/21 01:01:01;;;;;;;12.93;3.90;;;19.00;99.90;;;;;;5004789;28;20051;-75
2023/10/21 01:03:29;;;;;;;15.30;3.70;;;19.10;99.90;;;;;;5006152;28;20033;-72
2023/10/21 01:05:55;;;;;;;12.73;3.97;;;19.00;99.90;;;;;;5004302;28;20048;-73
2023/10/21 01:08:20;;;;;;;11.23;3.63;;;19.00;99.90;;;;;;5004563;28;20037;-73
2023/10/21 01:10:46;;;;;;;7.88;3.17;;;18.90;99.90;;;;;;5007804;28;20136;-73
2023/10/21 01:13:12;;;;;;;13.90;4.15;;;18.80;99.90;;;;;;5011368;28;20548;-73
2023/10/21 01:15:38;;;;;;;12.57;3.45;;;18.80;99.90;;;;;;5009102;28;20158;-73
2023/10/21 01:18:04;;;;;;;12.63;3.60;;;18.70;99.90;;;;;;5007709;28;20041;-68
2023/10/21 01:20:30;;;;;;;7.40;2.97;;;18.80;99.90;;;;;;5014753;28;20128;-68
2023/10/21 01:23:02;;;;;;;11.38;3.40;;;18.70;99.90;;;;;;5001710;28;20033;-68
2023/10/21 01:25:27;;;;;;;8.32;3.33;;;18.70;99.90;;;;;;5009139;28;20041;-68
2023/10/21 01:27:54;;;;;;;11.38;3.38;;;18.70;99.90;;;;;;5010728;28;20045;-68
2023/10/21 01:30:20;;;;;;;17.25;3.63;;;18.70;99.90;;;;;;5009740;28;20038;-69
2023/10/21 01:32:47;;;;;;;9.93;3.25;;;18.70;99.90;;;;;;5008314;28;20037;-69
2023/10/21 01:35:13;;;;;;;9.35;3.58;;;18.70;99.90;;;;;;5008989;28;20282;-69
2023/10/21 01:37:38;;;;;;;13.38;3.88;;;18.60;99.90;;;;;;5011455;28;20589;-68
2023/10/21 01:40:05;;;;;;;10.57;3.65;;;18.60;99.90;;;;;;5010227;28;20117;-68
2023/10/21 01:42:32;;;;;;;20.52;4.57;;;18.60;99.90;;;;;;5011241;28;20122;-69
2023/10/21 01:44:57;;;;;;;12.88;3.55;;;18.70;99.90;;;;;;5008295;28;20120;-68
2023/10/21 01:47:23;;;;;;;14.40;3.70;;;18.90;99.90;;;;;;5011657;28;20035;-67
2023/10/21 01:49:49;;;;;;;10.93;4.35;;;19.00;99.90;;;;;;5011076;28;20116;-68
2023/10/21 01:52:14;;;;;;;16.98;4.00;;;19.20;99.90;;;;;;5008783;28;20117;-74
2023/10/21 01:54:44;;;;;;;11.73;3.75;;;19.30;99.90;;;;;;5009394;28;21309;-74
2023/10/21 01:57:10;;;;;;;14.15;3.55;;;19.50;99.90;;;;;;5011512;28;20817;-74
2023/10/21 01:59:39;;;;;;;9.88;3.40;;;19.60;99.90;;;;;;5017021;28;20049;-74
2023/10/21 02:02:05;;;;;;;10.65;4.20;;;19.60;99.90;;;;;;5011712;28;20670;-74
2023/10/21 02:04:31;;;;;;;18.50;3.97;;;19.60;99.90;;;;;;5013129;28;20041;-74
2023/10/21 02:06:57;;;;;;;9.48;3.30;;;19.40;99.90;;;;;;5012764;28;20030;-74
2023/10/21 02:09:22;;;;;;;10.32;3.28;;;19.50;99.90;;;;;;5012867;28;20609;-74
2023/10/21 02:11:48;;;;;;;14.95;3.60;;;19.50;99.90;;;;;;5009406;28;20033;-68
2023/10/21 02:14:14;;;;;;;9.98;3.72;;;19.50;99.90;;;;;;5009510;28;20053;-68
2023/10/21 02:16:40;;;;;;;16.20;4.60;;;19.50;99.90;;;;;;5012028;28;20576;-68
2023/10/21 02:19:06;;;;;;;11.30;3.58;;;19.50;99.90;;;;;;5010852;28;20045;-68
2023/10/21 02:21:31;;;;;;;12.43;4.07;;;19.50;99.90;;;;;;5006760;28;20041;-68
2023/10/21 02:23:57;;;;;;;17.55;4.65;;;19.40;99.90;;;;;;5010235;28;20028;-68
2023/10/21 02:26:23;;;;;;;11.38;3.67;;;19.40;99.90;;;;;;5009833;28;20045;-68
2023/10/21 02:28:48;;;;;;;11.13;3.53;;;19.20;99.90;;;;;;5010907;28;20112;-68
2023/10/21 02:31:14;;;;;;;10.18;4.00;;;19.10;99.90;;;;;;5010193;28;20044;-68
2023/10/21 02:33:40;;;;;;;9.68;3.80;;;19.10;99.90;;;;;;5010133;28;20811;-68
2023/10/21 02:36:05;;;;;;;16.65;4.18;;;19.00;99.90;;;;;;5007960;28;20045;-68
2023/10/21 02:38:31;;;;;;;16.70;4.00;;;19.00;99.90;;;;;;5015197;28;20041;-68
2023/10/21 02:40:57;;;;;;;10.15;3.58;;;19.00;99.90;;;;;;5008028;28;20046;-68
2023/10/21 02:43:22;;;;;;;8.65;3.65;;;19.10;99.90;;;;;;5014375;28;20037;-68
2023/10/21 02:45:48;;;;;;;11.68;3.75;;;19.10;99.90;;;;;;5008201;28;20182;-68
2023/10/21 02:48:14;;;;;;;16.25;4.10;;;19.10;99.90;;;;;;5008974;28;20025;-68
2023/10/21 02:50:40;;;;;;;15.82;4.75;;;19.20;99.90;;;;;;5011781;28;20045;-67
2023/10/21 02:53:06;;;;;;;16.60;3.88;;;19.20;99.90;;;;;;5011109;28;20041;-68
2023/10/21 02:55:31;;;;;;;12.98;4.05;;;19.20;99.90;;;;;;5009813;28;20052;-68
2023/10/21 02:57:57;;;;;;;11.60;3.63;;;19.30;99.90;;;;;;5007852;28;20204;-68
2023/10/21 03:00:23;;;;;;;10.90;4.30;;;19.30;99.90;;;;;;5005511;28;20049;-68
2023/10/21 03:02:48;;;;;;;12.05;4.68;;;19.40;99.90;;;;;;5009234;28;20037;-68
2023/10/21 03:05:18;;;;;;;12.73;4.15;;;19.40;99.90;;;;;;5013131;28;20469;-68
2023/10/21 03:07:44;;;;;;;11.43;3.95;;;19.40;99.90;;;;;;5012233;28;20034;-74
2023/10/21 03:10:10;;;;;;;15.88;3.28;;;19.40;99.90;;;;;;5009502;28;20029;-73
2023/10/21 03:12:36;;;;;;;9.88;3.47;;;19.40;99.90;;;;;;5012156;28;20050;-73
2023/10/21 03:15:03;;;;;;;12.20;3.08;;;19.40;99.90;;;;;;5013852;28;20140;-74
2023/10/21 03:17:28;;;;;;;10.48;3.53;;;19.50;99.90;;;;;;5007286;28;20155;-74
2023/10/21 03:19:54;;;;;;;13.25;3.20;;;19.50;99.90;;;;;;5009502;28;20037;-73
2023/10/21 03:22:23;;;;;;;14.20;3.95;;;19.50;99.90;;;;;;5010147;28;20328;-74
2023/10/21 03:24:48;;;;;;;10.85;3.65;;;19.50;99.90;;;;;;5007979;28;20048;-74
2023/10/21 03:27:14;;;;;;;11.63;4.03;;;19.50;99.90;;;;;;5011098;28;20099;-75
2023/10/21 03:29:40;;;;;;;10.02;3.38;;;19.50;99.90;;;;;;5008608;28;20037;-74
2023/10/21 03:32:07;;;;;;;13.25;4.43;;;19.50;99.90;;;;;;5003319;28;20075;-74
2023/10/21 03:34:33;;;;;;;11.70;4.45;;;19.60;99.90;;;;;;5010406;28;20049;-74
2023/10/21 03:36:59;;;;;;;15.07;3.78;;;19.60;99.90;;;;;;5008537;28;20048;-74
2023/10/21 03:39:26;;;;;;;13.98;3.67;;;19.50;99.90;;;;;;5009916;28;20045;-73
2023/10/21 03:41:52;;;;;;;13.93;3.80;;;19.60;99.90;;;;;;5010173;28;20505;-74
2023/10/21 03:44:18;;;;;;;11.45;3.35;;;19.60;99.90;;;;;;5007429;28;20132;-74
2023/10/21 03:46:45;;;;;;;12.93;3.80;;;19.60;99.90;;;;;;5008822;28;20033;-74
2023/10/21 03:49:10;;;;;;;13.63;5.22;;;19.50;99.90;;;;;;5007985;28;20069;-74
2023/10/21 03:51:36;;;;;;;10.10;3.47;;;19.50;99.90;;;;;;5009546;28;20054;-74
2023/10/21 03:54:02;;;;;;;15.07;3.80;;;19.60;99.90;;;;;;5012915;28;20537;-74
2023/10/21 03:56:28;;;;;;;14.43;4.32;;;19.60;99.90;;;;;;5011623;28;20513;-74
2023/10/21 03:58:53;;;;;;;15.07;3.22;;;19.60;99.90;;;;;;5014153;28;20128;-74
2023/10/21 04:01:22;;;;;;;10.02;3.20;;;19.60;99.90;;;;;;4998910;28;20505;-68
2023/10/21 04:03:48;;;;;;;14.63;4.00;;;19.60;99.90;;;;;;5017459;28;20077;-74
2023/10/21 04:06:15;;;;;;;12.95;3.88;;;19.60;99.90;;;;;;5013585;28;20205;-74
2023/10/21 04:08:41;;;;;;;12.73;3.10;;;19.60;99.90;;;;;;5015148;28;20136;-74
2023/10/21 04:11:08;;;;;;;17.40;4.65;;;19.60;99.90;;;;;;5009111;28;20044;-74
2023/10/21 04:13:34;;;;;;;14.55;4.18;;;19.60;99.90;;;;;;5026066;28;20548;-74
2023/10/21 04:16:00;;;;;;;12.38;3.78;;;19.50;99.90;;;;;;5035095;28;20287;-74
2023/10/21 04:18:26;;;;;;;9.35;3.47;;;19.60;99.90;;;;;;5019750;28;20591;-74
2023/10/21 04:20:52;;;;;;;14.63;3.67;;;19.60;99.90;;;;;;5009170;28;20071;-68
2023/10/21 04:23:17;;;;;;;14.10;3.20;;;19.60;99.90;;;;;;5020591;28;20351;-68
2023/10/21 04:25:43;;;;;;;10.68;3.72;;;19.60;99.90;;;;;;5015105;28;20675;-67
2023/10/21 04:28:10;;;;;;;10.80;3.55;;;19.70;99.90;;;;;;5015376;28;20041;-68
2023/10/21 04:30:36;;;;;;;11.20;3.20;;;19.70;99.90;;;;;;5009414;28;20580;-67
2023/10/21 04:33:01;;;;;;;8.27;2.88;;;19.70;99.90;;;;;;5040105;28;20033;-68
2023/10/21 04:35:28;;;;;;;14.27;3.42;;;19.70;99.90;;;;;;5021372;28;20113;-68
2023/10/21 04:37:55;;;;;;;13.68;4.22;;;19.70;99.90;;;;;;5016104;28;20024;-68
2023/10/21 04:40:21;;;;;;;12.95;3.80;;;19.70;99.90;;;;;;5020731;28;20041;-68
2023/10/21 04:42:46;;;;;;;11.88;3.20;;;19.70;99.90;;;;;;5020687;28;20080;-68
2023/10/21 04:45:12;;;;;;;13.70;4.03;;;19.70;99.90;;;;;;5022269;28;20037;-68
2023/10/21 04:47:38;;;;;;;14.38;3.25;;;19.70;99.90;;;;;;5012649;28;20061;-68
2023/10/21 04:50:05;;;;;;;9.00;3.38;;;19.70;99.90;;;;;;5014401;28;20052;-69
2023/10/21 04:52:31;;;;;;;13.00;3.03;;;19.70;99.90;;;;;;5020733;28;20041;-68
2023/10/21 04:54:57;;;;;;;14.80;3.90;;;19.70;99.90;;;;;;5022020;28;20057;-68
2023/10/21 04:57:22;;;;;;;13.77;3.10;;;19.80;99.90;;;;;;5023679;28;20025;-74
2023/10/21 04:59:48;;;;;;;11.77;3.40;;;19.80;99.90;;;;;;5021379;28;20045;-74
2023/10/21 05:02:14;;;;;;;14.35;3.35;;;19.80;99.90;;;;;;5020887;28;20551;-74
2023/10/21 05:04:40;;;;;;;17.52;3.20;;;19.90;99.90;;;;;;5021744;28;20050;-73
2023/10/21 05:07:06;;;;;;;9.55;2.78;;;20.00;99.90;;;;;;5022980;28;20029;-75
2023/10/21 05:09:32;;;;;;;11.73;2.97;;;20.00;99.90;;;;;;5018320;28;20038;-75
2023/10/21 05:11:59;;;;;;;10.55;3.28;;;20.00;99.90;;;;;;5015348;28;20034;-76
2023/10/21 05:14:25;;;;;;;13.82;2.70;;;20.00;99.90;;;;;;5013096;28;20185;-70
2023/10/21 05:16:51;;;;;;;12.40;3.13;;;20.10;99.90;;;;;;5019340;28;20044;-74
2023/10/21 05:19:17;;;;;;;8.38;2.33;;;20.10;99.90;;;;;;5019207;28;20056;-75
2023/10/21 05:21:43;;;;;;;11.45;3.25;;;20.00;99.90;;;;;;5028628;28;20041;-75
2023/10/21 05:24:09;;;;;;;13.98;2.70;;;20.00;99.90;;;;;;5020687;28;20076;-75
2023/10/21 05:26:36;;;;;;;11.45;3.40;;;20.00;99.90;;;;;;5013777;28;20080;-75
2023/10/21 05:29:01;;;;;;;9.85;2.38;;;20.00;99.90;;;;;;5001774;28;20069;-73
2023/10/21 05:31:28;;;;;;;8.32;2.13;;;20.00;99.90;;;;;;5013162;28;20136;-73
2023/10/21 05:33:57;;;;;;;10.93;2.58;;;20.00;99.90;;;;;;5017513;28;20573;-69
2023/10/21 05:36:26;;;;;;;14.70;2.53;;;20.00;99.90;;;;;;5015573;28;20037;-70
2023/10/21 05:38:52;;;;;;;12.13;2.63;;;19.90;99.90;;;;;;5018056;28;20048;-70
2023/10/21 05:41:18;;;;;;;7.80;2.00;;;19.80;99.90;;;;;;5030818;28;20042;-69
2023/10/21 05:43:45;;;;;;;9.63;2.10;;;19.80;99.90;;;;;;5013912;28;20042;-68
2023/10/21 05:46:11;;;;;;;17.38;2.45;;;19.80;99.90;;;;;;5016586;28;20033;-68
2023/10/21 05:48:38;;;;;;;10.45;1.90;;;19.70;99.90;;;;;;5019039;28;21185;-69
2023/10/21 05:51:04;;;;;;;5.75;2.25;;;19.60;99.90;;;;;;5016018;28;20119;-69
2023/10/21 05:53:29;;;;;;;6.75;2.30;;;19.60;99.90;;;;;;5015344;28;20049;-69
2023/10/21 05:55:56;;;;;;;10.77;1.95;;;19.60;99.90;;;;;;5018622;28;20041;-69
2023/10/21 05:58:26;;;;;;;11.98;3.15;;;19.50;99.90;;;;;;5020123;28;20055;-68
2023/10/21 06:00:52;;;;;;;9.20;2.63;;;19.40;99.90;;;;;;5016310;28;20127;-68
2023/10/21 06:03:18;;;;;;;9.45;2.95;;;19.30;99.90;;;;;;5016471;28;20475;-68
2023/10/21 06:05:44;;;;;;;10.63;2.55;;;19.20;99.90;;;;;;5015188;28;20738;-67
2023/10/21 06:08:10;;;;;;;9.07;3.08;;;19.10;99.90;;;;;;5017149;28;20120;-68
2023/10/21 06:10:36;;;;;;;11.88;2.85;;;19.00;99.90;;;;;;5015941;28;20092;-68
2023/10/21 06:13:02;;;;;;;7.38;2.15;;;18.90;99.90;;;;;;5021009;28;20040;-67
2023/10/21 06:15:28;;;;;;;11.55;3.25;;;18.90;99.90;;;;;;5018235;28;20045;-67
2023/10/21 06:17:54;;;;;;;10.65;2.22;;;18.90;99.90;;;;;;5016230;28;20073;-67
2023/10/21 06:20:19;;;;;;;7.82;2.88;;;18.90;99.90;;;;;;5013655;28;20570;-67
2023/10/21 06:22:45;;;;;;;7.07;2.35;;;18.90;99.90;;;;;;5014749;28;20061;-67
2023/10/21 06:25:11;;;;;;;15.70;2.85;;;18.80;99.90;;;;;;5020674;28;20147;-67
2023/10/21 06:27:39;;;;;;;11.88;3.30;;;18.80;99.90;;;;;;5020607;28;20022;-67
2023/10/21 06:30:05;;;;;;;9.48;2.55;;;18.70;99.90;;;;;;5014994;28;20553;-70
2023/10/21 06:32:31;;;;;;;9.88;3.90;;;18.70;99.90;;;;;;5015122;28;20541;-67
2023/10/21 06:34:57;;;;;;;15.95;3.15;;;18.60;99.90;;;;;;5015472;28;20050;-68
2023/10/21 06:37:22;;;;;;;10.10;2.63;;;18.50;99.90;;;;;;5015558;28;20117;-69
2023/10/21 06:39:48;;;;;;;15.70;3.10;;;18.40;99.90;;;;;;5014250;28;20112;-68
2023/10/21 06:42:14;;;;;;;9.55;2.42;;;18.40;99.90;;;;;;5021821;28;20549;-70
2023/10/21 06:44:40;;;;;;;9.25;2.40;;;18.40;99.90;;;;;;5016090;28;20044;-68
2023/10/21 06:47:05;;;;;;;5.65;1.77;;;18.40;99.90;;;;;;5014999;28;20678;-68
2023/10/21 06:49:31;;;;;;;7.75;2.75;;;18.40;99.90;;;;;;5018998;28;20033;-66
2023/10/21 06:51:57;;;;;;;11.07;2.15;;;18.40;99.90;;;;;;5011086;28;20038;-66
2023/10/21 06:54:23;;;;;;;7.25;1.80;;;18.40;99.90;;;;;;5020836;28;20037;-69
2023/10/21 06:56:49;;;;;;;6.25;1.95;;;18.40;99.90;;;;;;5013394;28;20386;-67
2023/10/21 06:59:15;;;;;;;12.57;1.98;;;18.40;99.90;;;;;;5014430;28;20044;-68
2023/10/21 07:01:41;;;;;;;8.38;1.88;;;18.40;99.90;;;;;;5005305;28;20035;-67
2023/10/21 07:04:10;;;;;;;10.38;2.22;;;18.40;99.90;;;;;;5012148;28;20784;-68
2023/10/21 07:06:39;;;;;;;9.73;2.15;;;18.40;99.90;;;;;;5007012;28;20507;-67
2023/10/21 07:09:06;;;;;;;6.88;1.90;;;18.30;99.90;;;;;;5013673;28;20040;-66
2023/10/21 07:11:33;;;;;;;6.53;2.22;;;18.30;99.90;;;;;;5009412;28;20068;-71
2023/10/21 07:13:59;;;;;;;9.85;2.55;;;18.30;99.90;;;;;;5016044;28;20457;-69
2023/10/21 07:16:25;;;;;;;7.07;2.00;;;18.30;99.90;;;;;;5013639;28;20030;-66
2023/10/21 07:18:50;;;;;;;9.73;2.17;;;18.30;99.90;;;;;;5018580;28;20042;-68
2023/10/21 07:21:16;;;;;;;10.18;2.17;;;18.30;99.90;;;;;;5009836;28;20048;-68
2023/10/21 07:23:42;;;;;;;5.47;1.60;;;18.30;99.90;;;;;;5013454;28;20033;-67
2023/10/21 07:26:08;;;;;;;4.75;1.40;;;18.30;99.90;;;;;;5013066;28;20068;-67
2023/10/21 07:28:33;;;;;;;6.38;1.80;;;18.30;99.90;;;;;;5013397;28;21177;-68
2023/10/21 07:31:00;;;;;;;6.38;2.55;;;18.40;99.90;;;;;;5014501;28;20834;-68
2023/10/21 07:33:26;;;;;;;4.18;1.95;;;18.30;99.90;;;;;;5016304;28;20025;-70
2023/10/21 07:35:52;;;;;;;11.80;2.50;;;18.30;99.90;;;;;;5017814;28;20448;-69
2023/10/21 07:38:19;;;;;;;7.22;2.17;;;18.30;99.90;;;;;;5015653;28;20060;-68
2023/10/21 07:40:45;;;;;;;5.95;1.58;;;18.30;99.90;;;;;;5010702;28;20061;-68
2023/10/21 07:43:11;;;;;;;5.75;2.22;;;18.30;99.90;;;;;;5008057;28;20129;-68
2023/10/21 07:45:40;;;;;;;9.77;2.20;;;18.30;99.90;;;;;;5015178;28;20124;-67
2023/10/21 07:48:06;;;;;;;4.50;1.60;;;18.20;99.90;;;;;;5012911;28;20437;-68
2023/10/21 07:50:32;;;;;;;8.63;2.33;;;18.30;99.90;;;;;;5010441;28;20049;-68
2023/10/21 07:52:58;;;;;;;7.80;1.77;;;18.30;99.90;;;;;;5011069;28;20088;-69
2023/10/21 07:55:24;;;;;;;5.90;1.23;;;18.30;99.90;;;;;;5012935;28;20049;-68
2023/10/21 07:57:49;;;;;;;6.05;2.15;;;18.30;99.90;;;;;;5012565;28;20025;-70
2023/10/21 08:00:15;;;;;;;5.55;1.33;;;18.30;99.90;;;;;;5017660;28;20045;-74
2023/10/21 08:02:42;;;;;;;5.65;1.38;;;18.30;99.90;;;;;;5013950;28;20034;-71
2023/10/21 08:05:08;;;;;;;7.32;2.28;;;18.30;99.90;;;;;;5018310;28;20301;-72
2023/10/21 08:07:34;;;;;;;12.65;5.15;;;18.30;99.90;;;;;;5010071;28;20597;-72
2023/10/21 08:10:00;;;;;;;9.93;4.53;;;18.30;99.90;;;;;;5011272;28;21516;-73
2023/10/21 08:12:26;;;;;;;14.75;5.75;;;18.30;99.90;;;;;;5011651;28;20041;-72
2023/10/21 08:14:51;;;;;;;7.93;3.30;;;18.40;99.90;;;;;;5017943;28;20057;-73
2023/10/21 08:17:17;;;;;;;7.50;1.75;;;18.30;99.90;;;;;;5011423;28;20698;-72
2023/10/21 08:19:43;;;;;;;10.43;3.00;;;18.40;99.90;;;;;;5008930;28;20044;-69
2023/10/21 08:22:10;;;;;;;4.35;2.38;;;18.40;99.90;;;;;;5014094;28;20308;-67
2023/10/21 08:24:36;;;;;;;9.13;1.92;;;18.40;99.90;;;;;;5013306;28;20516;-67
2023/10/21 08:27:04;;;;;;;5.85;1.52;;;18.40;99.90;;;;;;5013075;28;20037;-68
2023/10/21 08:29:30;;;;;;;8.30;1.98;;;18.50;99.90;;;;;;5012303;28;20102;-68
2023/10/21 08:31:55;;;;;;;7.25;1.40;;;18.50;99.90;;;;;;5018751;28;20041;-69
2023/10/21 08:34:22;;;;;;;7.40;1.17;;;18.60;99.90;;;;;;5010369;28;20440;-69
2023/10/21 08:36:48;;;;;;;4.55;1.33;;;18.60;99.90;;;;;;5013381;28;20038;-69
2023/10/21 08:39:14;;;;;;;4.85;1.25;;;18.70;99.90;;;;;;5007574;28;20067;-70
2023/10/21 08:41:40;;;;;;;3.65;1.48;;;18.70;99.90;;;;;;5010678;28;20463;-70
2023/10/21 08:44:07;;;;;;;7.18;1.42;;;18.80;99.90;;;;;;5009282;28;20605;-70
2023/10/21 08:46:34;;;;;;;5.18;1.52;;;18.80;99.90;;;;;;5011054;28;20041;-70
2023/10/21 08:49:03;;;;;;;8.48;1.20;;;18.80;99.90;;;;;;5013498;28;20072;-68
2023/10/21 08:51:30;;;;;;;5.95;1.60;;;18.90;99.90;;;;;;5015649;28;20029;-67
2023/10/21 08:54:00;;;;;;;5.00;1.20;;;18.90;99.90;;;;;;5012301;28;20037;-68
2023/10/21 08:56:28;;;;;;;4.30;1.25;;;19.00;99.90;;;;;;5013577;28;20045;-67
2023/10/21 08:58:55;;;;;;;6.93;1.67;;;19.10;99.90;;;;;;5016167;28;20056;-68
2023/10/21 09:01:23;;;;;;;6.35;1.83;;;19.20;99.90;;;;;;5016500;28;20032;-68
2023/10/21 09:03:49;;;;;;;6.10;1.48;;;19.30;99.90;;;;;;5018098;28;20132;-69
2023/10/21 09:06:17;;;;;;;5.47;1.48;;;19.30;99.90;;;;;;5016814;28;20045;-68
2023/10/21 09:08:45;;;;;;;4.75;1.23;;;19.40;99.90;;;;;;5011590;28;20100;-70
2023/10/21 09:11:13;;;;;;;5.13;1.17;;;19.30;99.90;;;;;;5017580;28;20108;-69
2023/10/21 09:13:40;;;;;;;8.25;1.45;;;19.30;99.90;;;;;;5013561;28;20066;-69
2023/10/21 09:16:31;;;;;;;4.13;1.40;;;19.30;99.90;;;;;;5019802;28;20534;-69
2023/10/21 09:19:04;;;;;;;6.25;1.40;;;19.40;99.90;;;;;;5001846;28;20112;-69
2023/10/21 09:21:41;;;;;;;3.47;1.10;;;19.40;99.90;;;;;;5016994;28;20046;-67
2023/10/21 09:24:10;;;;;;;5.32;1.25;;;19.50;99.90;;;;;;5020125;28;20084;-67
2023/10/21 09:26:41;;;;;;;5.25;1.20;;;19.50;99.90;;;;;;5008464;28;20038;-67
2023/10/21 09:29:18;;;;;;;2.72;0.85;;;19.50;99.90;;;;;;5014836;28;20056;-67
2023/10/21 09:31:53;;;;;;;4.97;1.00;;;19.50;99.90;;;;;;5013799;28;20041;-67
2023/10/21 09:34:33;;;;;;;7.38;1.05;;;19.60;99.90;;;;;;5017020;28;20052;-67
2023/10/21 09:37:03;;;;;;;3.72;1.00;;;19.60;99.90;;;;;;5010471;28;20041;-67
2023/10/21 09:39:38;;;;;;;3.92;0.73;;;19.60;99.90;;;;;;5012097;28;20116;-67
2023/10/21 09:42:05;;;;;;;3.35;0.77;;;19.70;99.90;;;;;;5014670;28;20044;-67
2023/10/21 09:44:31;;;;;;;4.00;1.20;;;19.80;99.90;;;;;;5016190;28;20125;-67
2023/10/21 09:47:00;;;;;;;5.88;1.00;;;19.80;99.90;;;;;;5013319;28;20054;-68
2023/10/21 09:49:27;;;;;;;4.63;0.90;;;19.80;99.90;;;;;;5017734;28;20033;-68
2023/10/21 09:52:15;;;;;;;5.20;1.60;;;19.80;99.90;;;;;;5019922;28;20406;-72
2023/10/21 09:54:52;;;;;;;5.35;1.70;;;19.90;99.90;;;;;;5009412;28;20053;-73
2023/10/21 09:57:19;;;;;;;5.93;1.52;;;20.00;99.90;;;;;;5009757;28;20069;-72
2023/10/21 09:59:46;;;;;;;2.97;1.10;;;20.00;99.90;;;;;;5022704;28;20051;-72
2023/10/21 10:02:12;;;;;;;5.22;1.20;;;20.10;99.90;;;;;;5014055;28;20120;-72
2023/10/21 10:04:39;;;;;;;3.55;0.93;;;20.10;99.90;;;;;;5013682;28;20287;-72
2023/10/21 10:07:08;;;;;;;4.43;1.70;;;20.10;99.90;;;;;;5007731;28;20609;-72
2023/10/21 10:09:40;;;;;;;5.30;3.08;;;20.10;99.90;;;;;;5016813;28;20271;-71
2023/10/21 10:12:32;;;;;;;3.38;1.85;;;20.00;99.90;;;;;;5019357;28;20048;-72
2023/10/21 10:14:58;;;;;;;3.15;1.92;;;20.00;99.90;;;;;;5007386;28;20451;-72
2023/10/21 10:17:48;;;;;;;4.03;1.40;;;20.00;99.90;;;;;;5012719;28;20037;-71
2023/10/21 10:20:25;;;;;;;3.88;1.20;;;20.20;99.90;;;;;;5016046;28;20050;-71
2023/10/21 10:23:07;;;;;;;2.13;1.10;;;20.20;99.90;;;;;;5020053;28;20163;-72
2023/10/21 10:25:37;;;;;;;5.00;1.35;;;20.30;99.90;;;;;;5010846;28;20053;-71
2023/10/21 10:28:04;;;;;;;4.90;1.20;;;20.30;99.90;;;;;;5019184;28;20151;-67
2023/10/21 10:30:32;;;;;;;4.30;1.17;;;20.40;99.90;;;;;;5012539;28;21568;-67
2023/10/21 10:33:06;;;;;;;2.15;0.65;;;20.60;99.90;;;;;;5014888;28;20098;-67
2023/10/21 10:35:40;;;;;;;3.65;0.75;;;20.80;99.90;;;;;;5016450;28;20045;-67
2023/10/21 10:38:21;;;;;;;5.18;1.00;;;21.10;99.90;;;;;;5016948;28;20076;-68
2023/10/21 10:40:51;;;;;;;2.83;0.52;;;21.30;99.90;;;;;;4998220;28;20041;-68
2023/10/21 10:43:18;;;;;;;5.85;1.05;;;21.50;99.90;;;;;;5022001;28;20509;-68
2023/10/21 10:45:44;;;;;;;3.00;0.50;;;21.60;99.90;;;;;;5014725;28;20083;-68
2023/10/21 10:48:11;;;;;;;2.85;0.80;;;21.70;99.90;;;;;;5001610;28;20956;-68
2023/10/21 10:50:37;;;;;;;3.20;0.60;;;21.90;99.90;;;;;;5008460;28;20030;-68
2023/10/21 10:53:16;;;;;;;3.60;0.77;;;22.00;99.90;;;;;;5006565;28;20052;-68
2023/10/21 10:55:50;;;;;;;1.58;0.40;;;22.10;99.90;;;;;;4997941;28;20041;-68
2023/10/21 10:58:19;;;;;;;1.30;0.47;;;22.20;99.90;;;;;;5014974;28;20037;-68
2023/10/21 11:00:45;;;;;;;2.03;0.40;;;22.30;99.90;;;;;;5012561;28;23107;-68
2023/10/21 11:03:21;;;;;;;2.03;0.68;;;22.50;99.90;;;;;;5015273;28;20056;-68
2023/10/21 11:05:48;;;;;;;2.63;0.47;;;22.50;99.90;;;;;;5011110;28;20087;-71
2023/10/21 11:08:15;;;;;;;1.45;0.32;;;22.60;99.90;;;;;;5020445;28;20037;-71
2023/10/21 11:10:41;;;;;;;3.47;0.52;;;22.70;99.90;;;;;;5010403;28;20056;-71
2023/10/21 11:13:07;;;;;;;3.08;0.93;;;22.70;99.90;;;;;;5019598;28;20042;-71
2023/10/21 11:15:40;;;;;;;3.30;0.60;;;22.60;99.90;;;;;;5014322;28;20072;-71
2023/10/21 11:18:06;;;;;;;4.57;0.68;;;22.50;99.90;;;;;;5012865;28;20048;-71
2023/10/21 11:20:32;;;;;;;4.05;0.55;;;22.60;99.90;;;;;;5013695;28;20041;-70
2023/10/21 11:23:07;;;;;;;4.00;0.50;;;22.70;99.90;;;;;;5015301;28;20045;-68
2023/10/21 11:25:35;;;;;;;3.92;0.60;;;22.80;99.90;;;;;;5015977;28;20042;-68
2023/10/21 11:28:01;;;;;;;1.60;0.38;;;22.90;99.90;;;;;;5020455;28;20037;-70
2023/10/21 11:30:27;;;;;;;1.25;0.43;;;23.10;99.90;;;;;;5013767;28;20037;-70
2023/10/21 11:32:54;;;;;;;3.13;0.50;;;23.20;99.90;;;;;;5011597;28;20056;-68
2023/10/21 11:35:20;;;;;;;2.83;0.60;;;23.30;99.90;;;;;;5015977;28;20372;-67
2023/10/21 11:37:47;;;;;;;2.63;0.50;;;23.50;99.90;;;;;;5014189;28;20566;-68
2023/10/21 11:40:15;;;;;;;3.95;0.40;;;23.50;99.90;;;;;;5017255;28;20039;-68
2023/10/21 11:42:43;;;;;;;2.80;0.30;;;23.60;99.90;;;;;;5016585;28;20022;-68
2023/10/21 11:45:12;;;;;;;3.13;0.70;;;23.50;99.90;;;;;;5017878;28;20371;-67
2023/10/21 11:47:38;;;;;;;2.15;0.50;;;23.70;99.90;;;;;;5015317;28;20029;-69
2023/10/21 11:50:09;;;;;;;0.98;0.25;;;23.60;99.90;;;;;;5013754;28;20486;-66
2023/10/21 11:52:34;;;;;;;2.17;0.63;;;23.70;99.90;;;;;;5013366;28;20047;-68
2023/10/21 12:11:17;;;;;;;1.52;0.22;;;23.20;99.90;;;;;;5004200;28;20053;-66
2023/10/21 12:42:50;;;;;;;2.77;0.60;;;22.80;99.90;;;;;;5020061;28;20046;-68
2023/10/21 12:45:19;;;;;;;1.70;0.70;;;22.90;99.90;;;;;;5017889;28;20035;-67
2023/10/21 12:47:48;;;;;;;4.10;0.63;;;22.90;99.90;;;;;;5015269;28;20041;-67
2023/10/21 12:50:15;;;;;;;5.03;0.63;;;23.10;99.90;;;;;;5012766;28;20040;-67
2023/10/21 12:52:43;;;;;;;2.13;0.55;;;23.20;99.90;;;;;;5019811;28;20099;-67
2023/10/21 12:55:13;;;;;;;4.68;0.77;;;23.30;99.90;;;;;;5017947;28;20128;-70
2023/10/21 12:57:40;;;;;;;1.30;0.52;;;23.30;99.90;;;;;;5022865;28;20494;-68
2023/10/21 13:00:09;;;;;;;5.45;0.85;;;23.40;99.90;;;;;;5018760;28;20102;-68
2023/10/21 13:02:35;;;;;;;2.08;0.63;;;23.30;99.90;;;;;;5019543;28;20510;-67
2023/10/21 13:05:04;;;;;;;1.45;0.75;;;23.30;99.90;;;;;;5015235;28;20095;-68
2023/10/21 13:07:33;;;;;;;3.13;0.77;;;23.20;99.90;;;;;;5019687;28;20042;-67
2023/10/21 13:09:59;;;;;;;2.90;0.80;;;23.00;99.90;;;;;;5012895;28;20065;-67
2023/10/21 13:12:26;;;;;;;4.07;0.70;;;22.90;99.90;;;;;;5013239;28;20061;-67
2023/10/21 13:14:52;;;;;;;4.20;0.88;;;22.60;99.90;;;;;;5017849;28;20053;-67
2023/10/21 13:17:18;;;;;;;3.10;0.70;;;22.60;99.90;;;;;;5011411;28;20046;-68
2023/10/21 13:19:44;;;;;;;3.13;0.98;;;22.50;99.90;;;;;;5011345;28;20063;-66
2023/10/21 13:22:10;;;;;;;2.80;1.08;;;22.40;99.90;;;;;;5014385;28;20760;-66
2023/10/21 13:24:36;;;;;;;3.80;0.93;;;22.40;99.90;;;;;;5017986;28;20053;-67
2023/10/21 13:27:05;;;;;;;5.03;1.02;;;22.20;99.90;;;;;;5015039;28;20072;-67
2023/10/21 13:29:33;;;;;;;3.85;1.27;;;22.20;99.90;;;;;;5016143;28;20045;-68